createdAt,value
2018-09-26T00:00:26.949Z,3.00
2018-09-26T00:02:57.839Z,2.40
2018-09-26T00:05:26.049Z,1.90
2018-09-26T00:07:54.246Z,2.00
2018-09-26T00:10:22.459Z,2.30
2018-09-26T00:12:50.606Z,1.63
2018-09-26T00:15:18.850Z,1.87
2018-09-26T00:17:46.982Z,2.10
2018-09-26T00:20:15.143Z,1.90
2018-09-26T00:22:43.371Z,2.10
2018-09-26T00:25:11.570Z,1.97
2018-09-26T00:27:40.690Z,2.70
2018-09-26T00:30:08.834Z,4.33
2018-09-26T00:32:37.692Z,3.80
2018-09-26T00:35:06.429Z,2.83
2018-09-26T00:37:34.626Z,3.23
2018-09-26T00:40:02.761Z,1.57
2018-09-26T00:42:31.615Z,1.70
2018-09-26T00:44:59.739Z,1.40
2018-09-26T00:47:27.880Z,1.67
2018-09-26T00:49:56.018Z,1.87
2018-09-26T00:52:24.209Z,1.80
2018-09-26T00:54:52.389Z,1.60
2018-09-26T00:57:20.591Z,2.50
2018-09-26T00:59:48.705Z,1.60
2018-09-26T01:02:16.841Z,1.60
2018-09-26T01:04:45.903Z,2.23
2018-09-26T01:07:14.123Z,2.00
2018-09-26T01:09:42.283Z,2.10
2018-09-26T01:12:10.432Z,3.40
2018-09-26T01:14:38.661Z,2.20
2018-09-26T01:17:06.811Z,1.50
2018-09-26T01:19:36.073Z,2.70
2018-09-26T01:22:04.273Z,2.27
2018-09-26T01:24:32.407Z,1.47
2018-09-26T01:27:00.593Z,1.27
2018-09-26T01:29:28.729Z,1.53
2018-09-26T01:31:56.842Z,1.47
2018-09-26T01:34:24.980Z,1.93
2018-09-26T01:36:53.193Z,2.83
2018-09-26T01:39:21.348Z,4.63
2018-09-26T01:41:49.943Z,3.67
2018-09-26T01:44:18.669Z,2.63
2018-09-26T01:46:47.523Z,1.97
2018-09-26T01:49:15.772Z,1.20
2018-09-26T01:51:43.957Z,1.20
2018-09-26T01:54:12.353Z,1.60
2018-09-26T01:56:40.615Z,1.70
2018-09-26T01:59:08.906Z,1.60
2018-09-26T02:01:37.210Z,1.30
2018-09-26T02:04:06.160Z,1.13
2018-09-26T02:06:34.464Z,1.33
2018-09-26T02:09:03.155Z,1.20
2018-09-26T02:11:31.304Z,1.20
2018-09-26T02:13:59.665Z,1.90
2018-09-26T02:16:27.764Z,1.20
2018-09-26T02:18:56.029Z,1.63
2018-09-26T02:21:24.134Z,1.20
2018-09-26T02:23:52.439Z,1.37
2018-09-26T02:26:20.717Z,1.27
2018-09-26T02:28:48.836Z,1.40
2018-09-26T02:31:18.244Z,0.83
2018-09-26T02:33:46.441Z,1.10
2018-09-26T02:36:14.627Z,1.00
2018-09-26T02:38:42.979Z,1.40
2018-09-26T02:41:11.298Z,1.00
2018-09-26T02:43:40.805Z,1.20
2018-09-26T02:46:08.975Z,1.50
2018-09-26T02:48:42.678Z,1.30
2018-09-26T02:51:10.910Z,1.93
2018-09-26T02:53:39.193Z,1.17
2018-09-26T02:56:07.381Z,1.33
2018-09-26T02:58:36.751Z,1.40
2018-09-26T03:01:04.957Z,0.93
2018-09-26T03:03:33.142Z,1.70
2018-09-26T03:06:01.499Z,1.43
2018-09-26T03:08:30.080Z,2.13
2018-09-26T03:10:58.664Z,1.30
2018-09-26T03:13:28.414Z,1.20
2018-09-26T03:15:56.857Z,1.90
2018-09-26T03:18:24.997Z,1.57
2018-09-26T03:20:54.284Z,1.40
2018-09-26T03:23:23.095Z,1.50
2018-09-26T03:25:51.308Z,1.27
2018-09-26T03:28:20.247Z,1.20
2018-09-26T03:30:49.137Z,1.50
2018-09-26T03:33:17.679Z,1.50
2018-09-26T03:35:45.836Z,1.60
2018-09-26T03:38:14.030Z,1.57
2018-09-26T03:40:42.175Z,1.10
2018-09-26T03:43:10.336Z,1.60
2018-09-26T03:45:39.310Z,2.00
2018-09-26T03:48:07.522Z,1.80
2018-09-26T03:50:35.722Z,1.70
2018-09-26T03:53:04.164Z,1.60
2018-09-26T03:55:33.188Z,1.97
2018-09-26T03:58:01.922Z,1.80
2018-09-26T04:00:30.083Z,1.40
2018-09-26T04:02:58.394Z,1.90
2018-09-26T04:05:26.566Z,1.80
2018-09-26T04:07:54.748Z,1.90
2018-09-26T04:10:22.914Z,2.20
2018-09-26T04:12:51.159Z,2.43
2018-09-26T04:15:19.387Z,2.40
2018-09-26T04:17:47.508Z,3.30
2018-09-26T04:20:15.921Z,3.10
2018-09-26T04:22:44.076Z,3.47
2018-09-26T04:25:12.236Z,3.87
2018-09-26T04:27:40.586Z,3.00
2018-09-26T04:30:08.714Z,3.77
2018-09-26T04:32:37.137Z,3.87
2018-09-26T04:35:05.475Z,3.63
2018-09-26T04:37:33.633Z,3.97
2018-09-26T04:40:01.789Z,3.67
2018-09-26T04:42:30.010Z,5.83
2018-09-26T04:44:58.170Z,4.00
2018-09-26T04:47:26.364Z,5.17
2018-09-26T04:49:54.570Z,3.60
2018-09-26T04:52:22.733Z,3.77
2018-09-26T04:54:51.250Z,3.50
2018-09-26T04:57:19.422Z,3.07
2018-09-26T04:59:47.723Z,3.97
2018-09-26T05:02:15.877Z,3.40
2018-09-26T05:04:44.081Z,3.50
2018-09-26T05:07:12.362Z,3.60
2018-09-26T05:09:40.519Z,3.60
2018-09-26T05:12:08.759Z,4.13
2018-09-26T05:14:36.969Z,2.87
2018-09-26T05:17:05.095Z,3.50
2018-09-26T05:19:33.238Z,2.50
2018-09-26T05:22:01.423Z,3.00
2018-09-26T05:24:29.606Z,3.20
2018-09-26T05:26:57.985Z,2.60
2018-09-26T05:29:26.180Z,2.70
2018-09-26T05:31:54.352Z,3.50
2018-09-26T05:34:22.508Z,3.37
2018-09-26T05:36:50.642Z,3.30
2018-09-26T05:39:19.675Z,3.33
2018-09-26T05:41:47.844Z,3.57
2018-09-26T05:44:15.978Z,2.70
2018-09-26T05:46:44.222Z,2.40
2018-09-26T05:49:12.495Z,2.80
2018-09-26T05:51:40.659Z,2.10
2018-09-26T05:54:08.842Z,3.17
2018-09-26T05:56:37.066Z,2.67
2018-09-26T05:59:05.298Z,2.90
2018-09-26T06:01:33.498Z,2.77
2018-09-26T06:04:01.675Z,3.43
2018-09-26T06:06:29.878Z,2.80
2018-09-26T06:08:58.039Z,2.37
2018-09-26T06:11:26.205Z,3.10
2018-09-26T06:13:54.410Z,3.10
2018-09-26T06:16:22.551Z,2.73
2018-09-26T06:18:57.199Z,3.10
2018-09-26T06:21:25.388Z,2.60
2018-09-26T06:23:53.614Z,2.60
2018-09-26T06:26:22.945Z,2.53
2018-09-26T06:28:51.084Z,3.07
2018-09-26T06:31:19.242Z,2.50
2018-09-26T06:33:47.584Z,2.67
2018-09-26T06:36:15.751Z,2.00
2018-09-26T06:38:43.880Z,2.60
2018-09-26T06:41:13.844Z,5.63
2018-09-26T06:43:43.101Z,2.87
2018-09-26T06:46:11.198Z,3.30
2018-09-26T06:48:39.654Z,4.53
2018-09-26T06:51:07.777Z,3.10
2018-09-26T06:53:35.960Z,3.13
2018-09-26T06:56:04.198Z,3.30
2018-09-26T07:01:02.440Z,4.50
2018-09-26T07:03:31.628Z,3.90
2018-09-26T07:05:59.785Z,3.30
2018-09-26T07:08:27.915Z,3.10
2018-09-26T07:10:56.160Z,2.87
2018-09-26T07:13:24.517Z,3.60
2018-09-26T07:15:52.618Z,4.10
2018-09-26T07:18:21.129Z,3.40
2018-09-26T07:20:49.370Z,3.70
2018-09-26T07:23:17.582Z,3.97
2018-09-26T07:25:45.970Z,3.20
2018-09-26T07:28:14.177Z,3.57
2018-09-26T07:30:43.395Z,3.80
2018-09-26T07:33:11.653Z,2.50
2018-09-26T07:35:39.961Z,2.40
2018-09-26T07:38:08.097Z,2.93
2018-09-26T07:40:36.327Z,2.20
2018-09-26T07:43:04.654Z,2.37
2018-09-26T07:45:32.920Z,2.40
2018-09-26T07:48:01.051Z,2.40
2018-09-26T07:50:29.197Z,2.80
2018-09-26T07:52:57.408Z,2.67
2018-09-26T07:55:25.506Z,2.00
2018-09-26T07:57:53.679Z,2.10
2018-09-26T08:00:22.883Z,2.07
2018-09-26T08:02:51.132Z,3.10
2018-09-26T08:05:19.295Z,2.33
2018-09-26T08:07:47.649Z,3.00
2018-09-26T08:10:15.810Z,2.57
2018-09-26T08:12:43.993Z,2.67
2018-09-26T08:15:12.170Z,2.73
2018-09-26T08:17:40.310Z,2.40
2018-09-26T08:20:08.444Z,2.40
2018-09-26T08:22:36.603Z,1.60
2018-09-26T08:25:04.789Z,2.20
2018-09-26T08:27:32.926Z,2.20
2018-09-26T08:30:01.141Z,1.87
2018-09-26T08:32:29.206Z,1.80
2018-09-26T08:34:57.385Z,1.60
2018-09-26T08:37:25.507Z,1.57
2018-09-26T08:39:53.666Z,1.60
2018-09-26T08:42:23.879Z,2.23
2018-09-26T08:44:53.014Z,1.53
2018-09-26T08:47:21.198Z,1.77
2018-09-26T08:49:49.384Z,2.10
2018-09-26T08:52:17.712Z,1.70
2018-09-26T08:54:45.964Z,2.10
2018-09-26T08:57:14.232Z,2.20
2018-09-26T08:59:42.992Z,2.07
2018-09-26T09:02:11.170Z,1.83
2018-09-26T09:04:39.351Z,1.60
2018-09-26T09:07:07.500Z,1.70
2018-09-26T09:09:35.739Z,1.87
2018-09-26T09:12:03.883Z,1.70
2018-09-26T09:14:32.154Z,1.60
2018-09-26T09:17:00.246Z,1.00
2018-09-26T09:19:28.452Z,1.90
2018-09-26T09:21:56.577Z,1.10
2018-09-26T09:24:24.751Z,2.00
2018-09-26T09:26:52.927Z,1.70
2018-09-26T09:29:21.098Z,1.57
2018-09-26T09:31:49.264Z,1.60
2018-09-26T09:34:17.448Z,1.60
2018-09-26T09:36:45.589Z,1.97
2018-09-26T09:39:13.772Z,2.03
2018-09-26T09:41:41.981Z,1.87
2018-09-26T09:44:10.114Z,1.10
2018-09-26T09:46:38.278Z,1.60
2018-09-26T09:49:06.730Z,1.67
2018-09-26T09:51:34.874Z,1.27
2018-09-26T09:54:03.018Z,1.50
2018-09-26T09:56:31.328Z,1.57
2018-09-26T09:58:59.498Z,1.43
2018-09-26T10:01:29.052Z,1.90
2018-09-26T10:03:58.786Z,1.53
2018-09-26T10:06:27.328Z,1.60
2018-09-26T10:08:56.548Z,1.50
2018-09-26T10:11:24.684Z,1.63
2018-09-26T10:13:53.027Z,1.37
2018-09-26T10:16:21.208Z,0.90
2018-09-26T10:18:49.378Z,1.03
2018-09-26T10:21:17.556Z,2.23
2018-09-26T10:23:45.785Z,1.40
2018-09-26T10:26:14.014Z,1.27
2018-09-26T10:28:42.288Z,1.70
2018-09-26T10:31:10.495Z,1.40
2018-09-26T10:33:38.673Z,1.20
2018-09-26T10:36:06.896Z,1.50
2018-09-26T10:38:35.105Z,1.20
2018-09-26T10:41:03.238Z,1.70
2018-09-26T10:43:31.514Z,1.00
2018-09-26T10:45:59.680Z,2.23
2018-09-26T10:48:29.236Z,0.90
2018-09-26T10:50:57.496Z,0.90
2018-09-26T10:53:25.713Z,1.40
2018-09-26T10:55:53.890Z,1.20
2018-09-26T10:58:22.616Z,1.43
2018-09-26T11:00:50.782Z,1.87
2018-09-26T11:03:18.950Z,1.53
2018-09-26T11:05:47.122Z,2.03
2018-09-26T11:08:15.371Z,1.73
2018-09-26T11:10:43.543Z,1.20
2018-09-26T11:13:11.666Z,1.20
2018-09-26T11:15:39.887Z,1.40
2018-09-26T11:18:08.026Z,0.83
2018-09-26T11:20:36.150Z,1.40
2018-09-26T11:23:04.323Z,1.40
2018-09-26T11:25:32.474Z,1.90
2018-09-26T11:28:00.972Z,1.30
2018-09-26T11:30:29.176Z,1.67
2018-09-26T11:32:57.334Z,1.27
2018-09-26T11:35:25.528Z,1.27
2018-09-26T11:37:53.838Z,1.17
2018-09-26T11:40:22.144Z,1.20
2018-09-26T11:42:50.345Z,1.10
2018-09-26T11:45:18.469Z,1.30
2018-09-26T11:47:46.606Z,0.70
2018-09-26T11:50:14.842Z,1.20
2018-09-26T11:52:43.491Z,1.00
2018-09-26T11:55:11.838Z,1.60
2018-09-26T11:57:39.961Z,1.57
2018-09-26T12:00:08.142Z,1.00
2018-09-26T12:02:36.286Z,0.83
2018-09-26T12:05:04.530Z,1.47
2018-09-26T12:07:33.035Z,1.37
2018-09-26T12:10:01.210Z,3.47
2018-09-26T12:12:29.393Z,2.77
2018-09-26T12:14:57.589Z,1.40
2018-09-26T12:17:25.776Z,1.13
2018-09-26T12:19:54.546Z,1.40
2018-09-26T12:22:22.877Z,1.17
2018-09-26T12:24:51.034Z,1.50
2018-09-26T12:27:19.178Z,1.13
2018-09-26T12:29:47.552Z,1.60
2018-09-26T12:32:15.934Z,1.10
2018-09-26T12:34:44.103Z,0.90
2018-09-26T12:37:12.236Z,1.10
2018-09-26T12:39:40.986Z,1.10
2018-09-26T12:42:10.222Z,1.17
2018-09-26T12:44:38.372Z,1.53
2018-09-26T12:47:06.714Z,1.10
2018-09-26T12:49:34.889Z,2.60
2018-09-26T12:52:03.106Z,1.33
2018-09-26T12:54:31.337Z,1.30
2018-09-26T12:56:59.482Z,1.13
2018-09-26T12:59:28.134Z,1.00
2018-09-26T13:01:56.309Z,1.10
2018-09-26T13:04:24.536Z,1.20
2018-09-26T13:06:52.616Z,1.00
2018-09-26T13:09:20.796Z,1.37
2018-09-26T13:11:48.946Z,1.37
2018-09-26T13:14:17.135Z,1.00
2018-09-26T13:16:45.313Z,1.00
2018-09-26T13:19:13.444Z,1.23
2018-09-26T13:21:41.588Z,1.00
2018-09-26T13:24:10.279Z,1.10
2018-09-26T13:26:38.436Z,1.00
2018-09-26T13:29:06.580Z,1.33
2018-09-26T13:31:37.806Z,1.37
2018-09-26T13:34:07.029Z,1.10
2018-09-26T13:36:35.186Z,1.13
2018-09-26T13:39:03.385Z,1.53
2018-09-26T13:41:31.524Z,1.00
2018-09-26T13:43:59.732Z,1.80
2018-09-26T13:46:28.016Z,1.43
2018-09-26T13:48:56.112Z,1.77
2018-09-26T13:51:24.240Z,1.73
2018-09-26T13:53:52.607Z,1.20
2018-09-26T13:56:20.845Z,1.47
2018-09-26T13:58:49.228Z,1.73
2018-09-26T14:01:17.391Z,1.77
2018-09-26T14:03:45.513Z,1.20
2018-09-26T14:06:13.637Z,1.60
2018-09-26T14:08:41.806Z,1.33
2018-09-26T14:11:09.995Z,1.20
2018-09-26T14:13:38.195Z,1.33
2018-09-26T14:16:06.546Z,1.50
2018-09-26T14:18:34.741Z,1.40
2018-09-26T14:21:02.984Z,1.10
2018-09-26T14:23:31.183Z,1.40
2018-09-26T14:25:59.512Z,1.30
2018-09-26T14:28:27.684Z,1.30
2018-09-26T14:30:55.890Z,1.37
2018-09-26T14:33:24.090Z,1.07
2018-09-26T14:35:52.208Z,1.33
2018-09-26T14:38:20.382Z,1.37
2018-09-26T14:40:48.587Z,1.20
2018-09-26T14:43:16.803Z,0.80
2018-09-26T14:45:45.074Z,1.37
2018-09-26T14:48:13.201Z,1.67
2018-09-26T14:50:41.345Z,1.33
2018-09-26T14:53:09.531Z,1.10
2018-09-26T14:55:37.718Z,1.63
2018-09-26T14:58:07.084Z,1.57
2018-09-26T15:00:35.261Z,1.40
2018-09-26T15:03:03.649Z,1.27
2018-09-26T15:05:31.923Z,1.30
2018-09-26T15:08:00.385Z,1.33
2018-09-26T15:10:28.553Z,1.40
2018-09-26T15:12:56.963Z,1.13
2018-09-26T15:15:25.334Z,1.13
2018-09-26T15:17:53.551Z,1.60
2018-09-26T15:20:21.920Z,1.17
2018-09-26T15:22:50.032Z,1.43
2018-09-26T15:25:18.194Z,2.17
2018-09-26T15:27:46.395Z,1.70
2018-09-26T15:30:14.772Z,1.33
2018-09-26T15:32:42.899Z,1.20
2018-09-26T15:35:11.179Z,1.43
2018-09-26T15:37:43.250Z,1.10
2018-09-26T15:40:11.617Z,2.17
2018-09-26T15:42:39.979Z,2.47
2018-09-26T15:45:08.183Z,1.20
2018-09-26T15:47:36.395Z,1.80
2018-09-26T15:50:04.640Z,1.73
2018-09-26T15:52:32.779Z,2.63
2018-09-26T15:55:01.003Z,1.30
2018-09-26T15:57:29.249Z,1.30
2018-09-26T15:59:57.448Z,1.80
2018-09-26T16:02:25.717Z,1.93
2018-09-26T16:04:53.935Z,1.50
2018-09-26T16:07:22.995Z,1.67
2018-09-26T16:09:51.186Z,1.63
2018-09-26T16:12:19.375Z,1.23
2018-09-26T16:14:47.546Z,1.60
2018-09-26T16:17:15.733Z,1.67
2018-09-26T16:19:43.903Z,1.30
2018-09-26T16:22:12.301Z,1.67
2018-09-26T16:24:40.435Z,1.53
2018-09-26T16:27:08.855Z,2.37
2018-09-26T16:29:37.127Z,1.83
2018-09-26T16:32:05.522Z,2.30
2018-09-26T16:34:33.649Z,2.47
2018-09-26T16:37:03.807Z,2.70
2018-09-26T16:39:32.031Z,1.83
2018-09-26T16:42:00.130Z,2.97
2018-09-26T16:44:29.167Z,2.70
2018-09-26T16:46:57.352Z,2.50
2018-09-26T16:49:25.677Z,2.63
2018-09-26T16:51:53.909Z,3.87
2018-09-26T16:54:22.151Z,2.33
2018-09-26T16:56:50.369Z,2.73
2018-09-26T16:59:18.558Z,2.40
2018-09-26T17:01:46.728Z,1.77
2018-09-26T17:04:15.084Z,2.80
2018-09-26T17:06:43.392Z,2.40
2018-09-26T17:09:11.535Z,2.40
2018-09-26T17:11:39.966Z,2.63
2018-09-26T17:14:08.166Z,2.60
2018-09-26T17:16:36.371Z,2.30
2018-09-26T17:19:04.617Z,2.63
2018-09-26T17:21:32.839Z,2.37
2018-09-26T17:24:01.005Z,1.67
2018-09-26T17:26:29.219Z,2.20
2018-09-26T17:28:57.431Z,2.00
2018-09-26T17:31:25.595Z,1.70
2018-09-26T17:33:53.807Z,2.17
2018-09-26T17:36:22.185Z,2.67
2018-09-26T17:38:50.342Z,2.83
2018-09-26T17:41:18.536Z,2.50
2018-09-26T17:43:46.662Z,3.03
2018-09-26T17:46:14.898Z,1.87
2018-09-26T17:48:43.091Z,2.60
2018-09-26T17:53:45.987Z,2.60
2018-09-26T17:56:14.278Z,2.70
2018-09-26T17:58:43.271Z,2.00
2018-09-26T18:01:11.448Z,2.00
2018-09-26T18:03:39.711Z,2.23
2018-09-26T18:06:07.979Z,1.90
2018-09-26T18:08:36.384Z,2.50
2018-09-26T18:11:05.473Z,3.80
2018-09-26T18:13:33.844Z,3.23
2018-09-26T18:16:02.149Z,2.90
2018-09-26T18:18:30.592Z,2.10
2018-09-26T18:20:58.831Z,2.10
2018-09-26T18:23:28.427Z,2.50
2018-09-26T18:25:56.549Z,2.67
2018-09-26T18:28:24.779Z,3.07
2018-09-26T18:30:53.058Z,1.90
2018-09-26T18:33:22.153Z,2.73
2018-09-26T18:35:50.811Z,1.73
2018-09-26T18:38:19.069Z,2.60
2018-09-26T18:40:47.184Z,2.53
2018-09-26T18:43:15.363Z,3.30
2018-09-26T18:45:43.573Z,2.17
2018-09-26T18:48:11.813Z,1.87
2018-09-26T18:50:40.103Z,1.87
2018-09-26T18:53:08.569Z,2.50
2018-09-26T18:55:36.751Z,1.97
2018-09-26T18:58:04.963Z,2.10
2018-09-26T19:00:33.144Z,2.50
2018-09-26T19:03:01.460Z,3.00
2018-09-26T19:05:29.680Z,1.97
2018-09-26T19:07:58.000Z,2.30
2018-09-26T19:10:26.213Z,2.67
2018-09-26T19:12:54.481Z,2.30
2018-09-26T19:15:22.732Z,2.43
2018-09-26T19:17:52.551Z,2.00
2018-09-26T19:20:20.871Z,2.00
2018-09-26T19:22:49.102Z,1.73
2018-09-26T19:25:17.472Z,2.00
2018-09-26T19:27:45.701Z,1.70
2018-09-26T19:30:15.234Z,2.20
2018-09-26T19:32:44.443Z,2.00
2018-09-26T19:35:13.526Z,1.93
2018-09-26T19:37:41.740Z,2.43
2018-09-26T19:40:10.074Z,2.33
2018-09-26T19:42:38.336Z,1.50
2018-09-26T19:45:06.582Z,1.90
2018-09-26T19:47:34.817Z,1.60
2018-09-26T19:50:03.110Z,2.10
2018-09-26T19:52:31.537Z,2.20
2018-09-26T19:55:00.184Z,1.97
2018-09-26T19:57:28.441Z,1.87
2018-09-26T19:59:56.642Z,2.37
2018-09-26T20:02:24.970Z,1.80
2018-09-26T20:04:53.162Z,1.60
2018-09-26T20:07:21.403Z,1.90
2018-09-26T20:09:49.625Z,1.87
2018-09-26T20:12:17.831Z,2.10
2018-09-26T20:14:46.130Z,2.23
2018-09-26T20:17:14.323Z,2.10
2018-09-26T20:19:42.740Z,2.67
2018-09-26T20:22:11.015Z,1.80
2018-09-26T20:24:39.229Z,2.10
2018-09-26T20:27:07.708Z,2.60
2018-09-26T20:29:36.130Z,1.90
2018-09-26T20:32:04.143Z,1.50
2018-09-26T20:34:33.527Z,1.37
2018-09-26T20:37:01.812Z,1.30
2018-09-26T20:39:30.047Z,1.90
2018-09-26T20:41:58.265Z,1.30
2018-09-26T20:44:26.583Z,1.20
2018-09-26T20:46:54.911Z,1.27
2018-09-26T20:49:23.084Z,1.80
2018-09-26T20:51:51.333Z,1.23
2018-09-26T20:54:33.759Z,1.80
2018-09-26T20:57:02.093Z,1.50
2018-09-26T20:59:30.253Z,1.50
2018-09-26T21:01:58.430Z,1.00
2018-09-26T21:04:26.614Z,1.50
2018-09-26T21:06:55.262Z,1.40
2018-09-26T21:09:23.461Z,1.53
2018-09-26T21:11:52.375Z,1.20
2018-09-26T21:14:20.553Z,1.40
2018-09-26T21:16:48.696Z,1.30
2018-09-26T21:19:16.882Z,1.00
2018-09-26T21:21:45.032Z,1.00
2018-09-26T21:24:13.423Z,1.33
2018-09-26T21:26:41.599Z,1.20
2018-09-26T21:29:10.472Z,1.23
2018-09-26T21:31:39.950Z,1.57
2018-09-26T21:34:09.116Z,1.30
2018-09-26T21:36:37.279Z,2.07
2018-09-26T21:39:07.241Z,1.47
2018-09-26T21:41:35.309Z,1.50
2018-09-26T21:44:04.099Z,1.30
2018-09-26T21:46:32.264Z,1.50
2018-09-26T21:49:00.614Z,1.60
2018-09-26T21:51:28.820Z,1.60
2018-09-26T21:53:56.989Z,1.70
2018-09-26T21:56:25.400Z,1.30
2018-09-26T21:58:53.588Z,1.10
2018-09-26T22:01:21.766Z,1.30
2018-09-26T22:03:49.935Z,1.37
2018-09-26T22:06:18.112Z,1.40
2018-09-26T22:08:46.321Z,1.60
2018-09-26T22:11:14.496Z,1.30
2018-09-26T22:13:42.710Z,1.70
2018-09-26T22:16:10.928Z,1.00
2018-09-26T22:18:39.107Z,1.80
2018-09-26T22:21:07.345Z,0.97
2018-09-26T22:23:35.609Z,1.40
2018-09-26T22:26:03.780Z,1.20
2018-09-26T22:28:31.987Z,1.50
2018-09-26T22:31:00.200Z,1.37
2018-09-26T22:33:28.849Z,1.60
2018-09-26T22:35:57.104Z,1.00
2018-09-26T22:38:25.353Z,1.30
2018-09-26T22:40:53.599Z,1.83
2018-09-26T22:43:21.824Z,1.27
2018-09-26T22:45:50.096Z,1.37
2018-09-26T22:48:18.277Z,1.10
2018-09-26T22:50:46.538Z,1.07
2018-09-26T22:53:14.719Z,1.83
2018-09-26T22:55:42.990Z,1.60
2018-09-26T22:58:11.256Z,1.13
2018-09-26T23:00:39.392Z,1.10
2018-09-26T23:03:07.659Z,1.30
2018-09-26T23:05:35.821Z,1.30
2018-09-26T23:08:04.101Z,1.53
2018-09-26T23:10:32.405Z,1.70
2018-09-26T23:13:00.615Z,1.67
2018-09-26T23:15:28.820Z,1.83
2018-09-26T23:17:57.027Z,1.23
2018-09-26T23:20:25.913Z,1.10
2018-09-26T23:22:54.085Z,1.23
2018-09-26T23:25:22.242Z,1.30
2018-09-26T23:27:50.418Z,2.00
2018-09-26T23:30:18.559Z,1.47
2018-09-26T23:32:46.756Z,1.37
2018-09-26T23:35:14.978Z,1.47
2018-09-26T23:37:43.308Z,1.60
2018-09-26T23:40:11.454Z,2.03
2018-09-26T23:42:39.634Z,1.70
2018-09-26T23:45:07.556Z,1.60
2018-09-26T23:47:35.766Z,1.67
2018-09-26T23:50:04.302Z,1.50
2018-09-26T23:52:32.478Z,1.83
2018-09-26T23:55:00.674Z,1.77
2018-09-26T23:57:28.862Z,1.57
2018-09-26T23:59:57.051Z,21.03
